createdAt,value
2022-09-15T00:01:30.189Z,44.89
2022-09-15T00:03:57.989Z,44.83
2022-09-15T00:06:25.727Z,44.73
2022-09-15T00:08:53.689Z,44.64
2022-09-15T00:11:28.220Z,44.79
2022-09-15T00:13:57.814Z,44.14
2022-09-15T00:16:28.553Z,44.15
2022-09-15T00:18:56.696Z,44.18
2022-09-15T00:21:28.488Z,44.14
2022-09-15T00:23:56.190Z,44.38
2022-09-15T00:26:26.541Z,44.66
2022-09-15T00:28:56.191Z,44.09
2022-09-15T00:31:26.536Z,44.29
2022-09-15T00:33:56.852Z,44.41
2022-09-15T00:36:26.452Z,44.68
2022-09-15T00:38:54.358Z,44.61
2022-09-15T00:41:24.127Z,44.24
2022-09-15T00:44:05.604Z,44.54
2022-09-15T00:46:41.217Z,44.57
2022-09-15T00:49:18.780Z,44.08
2022-09-15T00:51:52.212Z,44.44
2022-09-15T00:54:34.510Z,44.86
2022-09-15T00:57:09.795Z,44.43
2022-09-15T00:59:40.493Z,44.01
2022-09-15T01:02:25.420Z,44.48
2022-09-15T01:04:58.403Z,43.48
2022-09-15T01:07:58.110Z,43.63
2022-09-15T01:10:38.296Z,43.09
2022-09-15T01:13:10.878Z,43.04
2022-09-15T01:16:07.383Z,43.29
2022-09-15T01:18:50.708Z,43.53
2022-09-15T01:21:36.667Z,43.36
2022-09-15T01:24:41.693Z,43.06
2022-09-15T01:27:41.471Z,43.45
2022-09-15T01:30:09.716Z,43.18
2022-09-15T01:33:04.133Z,43.03
2022-09-15T01:35:53.161Z,44.01
2022-09-15T01:38:44.154Z,44.17
2022-09-15T01:41:27.313Z,43.13
2022-09-15T01:44:16.695Z,42.94
2022-09-15T01:46:48.656Z,43.10
2022-09-15T01:49:22.625Z,43.01
2022-09-15T01:51:53.513Z,43.06
2022-09-15T01:54:36.002Z,43.54
2022-09-15T01:57:03.938Z,43.26
2022-09-15T01:59:31.638Z,43.16
2022-09-15T02:02:12.692Z,43.14
2022-09-15T02:05:00.179Z,43.08
2022-09-15T02:08:10.089Z,42.63
2022-09-15T02:10:44.060Z,43.42
2022-09-15T02:13:19.761Z,43.61
2022-09-15T02:15:54.017Z,43.03
2022-09-15T02:19:00.088Z,42.94
2022-09-15T02:22:10.726Z,42.55
2022-09-15T02:24:52.998Z,42.24
2022-09-15T02:27:25.230Z,42.84
2022-09-15T02:29:58.216Z,42.77
2022-09-15T02:32:28.080Z,42.74
2022-09-15T02:34:57.185Z,42.18
2022-09-15T02:37:26.400Z,42.68
2022-09-15T02:39:58.125Z,42.37
2022-09-15T02:42:31.726Z,42.61
2022-09-15T02:45:01.499Z,42.56
2022-09-15T02:47:29.508Z,42.50
2022-09-15T02:49:57.211Z,42.55
2022-09-15T02:52:24.924Z,42.85
2022-09-15T02:54:52.341Z,42.93
2022-09-15T02:57:19.843Z,42.61
2022-09-15T03:00:06.937Z,42.77
2022-09-15T03:02:34.566Z,43.07
2022-09-15T03:05:02.416Z,42.52
2022-09-15T03:07:30.193Z,42.71
2022-09-15T03:09:58.487Z,42.52
2022-09-15T03:12:26.643Z,43.04
2022-09-15T03:14:54.305Z,42.57
2022-09-15T03:17:21.711Z,42.53
2022-09-15T03:19:50.815Z,42.02
2022-09-15T03:22:18.136Z,42.05
2022-09-15T03:24:45.737Z,41.85
2022-09-15T03:27:14.254Z,41.93
2022-09-15T03:29:41.666Z,41.38
2022-09-15T03:32:09.139Z,41.71
2022-09-15T03:34:36.871Z,41.76
2022-09-15T03:37:05.393Z,41.31
2022-09-15T03:39:33.329Z,41.82
2022-09-15T03:42:00.999Z,41.63
2022-09-15T03:44:28.872Z,41.79
2022-09-15T03:46:58.118Z,41.28
2022-09-15T03:49:26.314Z,41.06
2022-09-15T03:51:53.683Z,40.89
2022-09-15T03:54:21.237Z,40.88
2022-09-15T03:56:49.183Z,40.95
2022-09-15T03:59:18.930Z,41.34
2022-09-15T04:01:48.272Z,40.92
2022-09-15T04:04:16.556Z,40.54
2022-09-15T04:06:44.969Z,40.71
2022-09-15T04:09:12.597Z,40.58
2022-09-15T04:11:40.609Z,40.42
2022-09-15T04:14:08.157Z,40.36
2022-09-15T04:16:35.658Z,40.75
2022-09-15T04:19:03.566Z,40.68
2022-09-15T04:21:32.103Z,41.08
2022-09-15T04:23:59.509Z,41.05
2022-09-15T04:26:36.583Z,40.26
2022-09-15T04:29:11.656Z,40.49
2022-09-15T04:31:39.637Z,40.98
2022-09-15T04:34:07.104Z,40.63
2022-09-15T04:36:35.043Z,40.72
2022-09-15T04:39:02.742Z,40.47
2022-09-15T04:41:30.419Z,40.67
2022-09-15T04:43:58.608Z,41.40
2022-09-15T04:46:26.585Z,41.32
2022-09-15T04:48:54.357Z,41.04
2022-09-15T04:51:23.900Z,41.78
2022-09-15T04:53:52.788Z,42.62
2022-09-15T04:56:23.654Z,43.40
2022-09-15T04:59:03.272Z,43.80
2022-09-15T05:01:36.127Z,45.98
2022-09-15T05:04:05.054Z,46.29
2022-09-15T05:06:35.059Z,46.60
2022-09-15T05:09:10.082Z,46.87
2022-09-15T05:11:38.703Z,47.39
2022-09-15T05:14:07.105Z,47.70
2022-09-15T05:16:35.301Z,47.10
2022-09-15T05:19:04.781Z,49.86
2022-09-15T05:21:32.985Z,51.18
2022-09-15T05:24:00.583Z,52.04
2022-09-15T05:26:29.648Z,52.58
2022-09-15T05:28:57.920Z,52.67
2022-09-15T05:31:31.523Z,53.38
2022-09-15T05:34:02.894Z,53.50
2022-09-15T05:36:30.729Z,55.92
2022-09-15T05:38:58.478Z,55.22
2022-09-15T05:41:28.295Z,54.69
2022-09-15T05:43:58.070Z,56.16
2022-09-15T05:46:27.394Z,56.98
2022-09-15T05:48:57.819Z,57.03
2022-09-15T05:51:25.634Z,57.12
2022-09-15T05:53:53.184Z,56.80
2022-09-15T05:56:23.281Z,53.88
2022-09-15T05:58:52.213Z,49.04
2022-09-15T06:01:25.695Z,49.99
2022-09-15T06:03:54.625Z,46.07
2022-09-15T06:06:23.855Z,46.13
2022-09-15T06:08:58.587Z,44.72
2022-09-15T06:11:30.045Z,44.45
2022-09-15T06:14:03.652Z,43.94
2022-09-15T06:16:34.398Z,43.95
2022-09-15T06:19:02.228Z,43.14
2022-09-15T06:21:32.030Z,44.03
2022-09-15T06:24:03.844Z,44.08
2022-09-15T06:26:31.338Z,43.38
2022-09-15T06:29:01.602Z,43.81
2022-09-15T06:31:32.228Z,43.38
2022-09-15T06:34:00.752Z,43.18
2022-09-15T06:36:30.263Z,43.17
2022-09-15T06:38:58.966Z,43.45
2022-09-15T06:41:38.195Z,43.35
2022-09-15T06:44:22.191Z,41.70
2022-09-15T06:46:50.776Z,41.66
2022-09-15T06:49:19.179Z,42.33
2022-09-15T06:51:46.771Z,42.67
2022-09-15T06:54:16.184Z,43.05
2022-09-15T06:56:44.980Z,42.96
2022-09-15T06:59:14.596Z,42.17
2022-09-15T07:01:46.519Z,41.81
2022-09-15T07:04:14.244Z,41.44
2022-09-15T07:06:43.129Z,41.69
2022-09-15T07:09:10.825Z,41.81
2022-09-15T07:11:38.580Z,41.64
2022-09-15T07:14:06.252Z,41.64
2022-09-15T07:16:33.869Z,41.70
2022-09-15T07:19:03.654Z,41.20
2022-09-15T07:21:31.239Z,41.65
2022-09-15T07:23:59.976Z,41.77
2022-09-15T07:26:31.028Z,43.93
2022-09-15T07:29:01.767Z,44.83
2022-09-15T07:31:33.411Z,45.58
2022-09-15T07:34:02.290Z,46.00
2022-09-15T07:36:30.873Z,44.00
2022-09-15T07:38:58.788Z,42.17
2022-09-15T07:41:31.674Z,42.56
2022-09-15T07:44:00.627Z,41.75
2022-09-15T07:46:32.540Z,41.50
2022-09-15T07:49:00.915Z,42.74
2022-09-15T07:51:28.790Z,42.05
2022-09-15T07:53:56.396Z,41.69
2022-09-15T07:56:24.550Z,41.83
2022-09-15T07:58:52.610Z,41.09
2022-09-15T08:01:22.381Z,40.44
2022-09-15T08:03:52.457Z,40.79
2022-09-15T08:06:23.733Z,41.39
2022-09-15T08:08:56.269Z,40.62
2022-09-15T08:11:27.318Z,40.89
2022-09-15T08:13:54.851Z,40.64
2022-09-15T08:16:24.446Z,40.51
2022-09-15T08:18:53.840Z,40.52
2022-09-15T08:21:22.828Z,40.71
2022-09-15T08:23:56.658Z,41.19
2022-09-15T08:26:27.149Z,41.89
2022-09-15T08:28:54.969Z,42.09
2022-09-15T08:31:24.430Z,41.98
2022-09-15T08:33:55.396Z,42.25
2022-09-15T08:36:24.613Z,42.45
2022-09-15T08:38:52.174Z,42.69
2022-09-15T08:41:36.563Z,42.98
2022-09-15T08:44:38.429Z,42.44
2022-09-15T08:47:27.658Z,43.27
2022-09-15T08:50:20.761Z,43.05
2022-09-15T08:53:01.026Z,42.25
2022-09-15T08:55:50.334Z,42.76
2022-09-15T08:58:24.761Z,42.88
2022-09-15T09:01:11.330Z,42.69
2022-09-15T09:03:58.236Z,43.01
2022-09-15T09:07:03.887Z,43.50
2022-09-15T09:09:52.681Z,43.95
2022-09-15T09:12:44.945Z,43.96
2022-09-15T09:15:31.494Z,42.84
2022-09-15T09:18:19.915Z,41.78
2022-09-15T09:21:17.875Z,41.95
2022-09-15T09:24:26.539Z,42.28
2022-09-15T09:26:56.465Z,42.48
2022-09-15T09:29:40.414Z,43.23
2022-09-15T09:32:21.811Z,44.85
2022-09-15T09:35:05.185Z,45.74
2022-09-15T09:37:33.982Z,46.70
2022-09-15T09:40:01.978Z,47.18
2022-09-15T09:42:34.835Z,47.22
2022-09-15T09:45:03.542Z,47.70
2022-09-15T09:47:33.379Z,48.39
2022-09-15T09:50:01.142Z,48.63
2022-09-15T09:52:37.947Z,48.91
2022-09-15T09:55:20.107Z,49.08
2022-09-15T09:57:47.856Z,49.17
2022-09-15T10:00:38.876Z,49.38
2022-09-15T10:03:28.010Z,49.93
2022-09-15T10:06:15.676Z,49.61
2022-09-15T10:09:05.232Z,49.60
2022-09-15T10:11:51.539Z,49.12
2022-09-15T10:14:35.267Z,49.13
2022-09-15T10:17:20.977Z,48.59
2022-09-15T10:19:58.824Z,48.22
2022-09-15T10:22:40.443Z,47.61
2022-09-15T10:25:20.374Z,47.39
2022-09-15T10:28:09.839Z,47.60
2022-09-15T10:30:38.522Z,47.53
2022-09-15T10:33:20.487Z,46.71
2022-09-15T10:35:48.293Z,46.61
2022-09-15T10:38:30.159Z,45.96
2022-09-15T10:41:28.897Z,46.63
2022-09-15T10:44:25.928Z,46.86
2022-09-15T10:47:38.240Z,46.72
2022-09-15T10:50:41.662Z,44.63
2022-09-15T10:53:40.578Z,43.83
2022-09-15T10:56:40.001Z,44.41
2022-09-15T10:59:40.565Z,43.83
2022-09-15T11:02:40.222Z,42.15
2022-09-15T11:05:42.855Z,42.66
2022-09-15T11:08:49.180Z,41.97
2022-09-15T11:11:32.486Z,41.03
2022-09-15T11:14:08.099Z,39.02
2022-09-15T11:17:39.698Z,39.08
2022-09-15T11:20:43.872Z,39.58
2022-09-15T11:23:19.219Z,40.31
2022-09-15T11:26:09.932Z,40.58
2022-09-15T11:28:57.498Z,40.69
2022-09-15T11:31:42.592Z,40.83
2022-09-15T11:34:29.060Z,41.62
2022-09-15T11:37:07.231Z,42.75
2022-09-15T11:39:52.467Z,42.09
2022-09-15T11:42:53.417Z,41.83
2022-09-15T11:45:26.492Z,41.70
2022-09-15T11:48:04.434Z,40.27
2022-09-15T11:50:41.487Z,40.54
2022-09-15T11:53:38.690Z,38.43
2022-09-15T11:56:28.932Z,39.41
2022-09-15T11:59:31.538Z,38.75
2022-09-15T12:02:38.885Z,38.61
2022-09-15T12:05:22.210Z,37.59
2022-09-15T12:08:27.532Z,38.31
2022-09-15T12:10:59.841Z,39.10
2022-09-15T12:13:28.698Z,39.27
2022-09-15T12:15:57.495Z,39.88
2022-09-15T12:19:14.591Z,39.15
2022-09-15T12:21:58.077Z,40.25
2022-09-15T12:24:50.791Z,40.01
2022-09-15T12:27:21.063Z,39.99
2022-09-15T12:29:55.087Z,40.03
2022-09-15T12:32:34.986Z,40.03
2022-09-15T12:35:18.265Z,40.44
2022-09-15T12:37:58.110Z,40.95
2022-09-15T12:40:41.801Z,41.09
2022-09-15T12:43:15.993Z,41.03
2022-09-15T12:45:54.876Z,41.06
2022-09-15T12:48:34.136Z,41.32
2022-09-15T12:51:06.244Z,41.40
2022-09-15T12:53:51.440Z,41.39
2022-09-15T12:56:31.513Z,41.01
2022-09-15T12:59:08.128Z,41.60
2022-09-15T13:01:50.823Z,41.77
2022-09-15T13:04:52.515Z,41.84
2022-09-15T13:07:20.168Z,41.54
2022-09-15T13:09:56.471Z,42.18
2022-09-15T13:12:36.311Z,42.24
2022-09-15T13:15:13.556Z,41.78
2022-09-15T13:17:46.473Z,41.55
2022-09-15T13:20:26.018Z,41.49
2022-09-15T13:22:58.979Z,42.71
2022-09-15T13:25:30.429Z,42.24
2022-09-15T13:28:02.627Z,42.07
2022-09-15T13:30:45.065Z,42.60
2022-09-15T13:40:38.176Z,42.35
2022-09-15T13:43:42.526Z,42.69
2022-09-15T13:46:34.143Z,42.63
2022-09-15T13:49:38.154Z,42.76
2022-09-15T13:52:23.374Z,42.91
2022-09-15T13:55:20.977Z,42.61
2022-09-15T14:00:49.212Z,43.85
2022-09-15T14:03:25.797Z,43.41
2022-09-15T14:05:55.572Z,43.04
2022-09-15T14:08:33.670Z,43.50
2022-09-15T14:11:08.413Z,43.19
2022-09-15T14:13:41.605Z,43.38
2022-09-15T14:16:35.332Z,44.40
2022-09-15T14:19:33.404Z,43.91
2022-09-15T14:22:26.967Z,44.19
2022-09-15T14:24:57.326Z,43.86
2022-09-15T14:27:33.827Z,43.71
2022-09-15T14:30:27.863Z,43.72
2022-09-15T14:33:00.753Z,43.25
2022-09-15T14:35:37.723Z,43.96
2022-09-15T14:38:05.503Z,43.27
2022-09-15T14:40:38.092Z,43.36
2022-09-15T14:43:35.630Z,43.23
2022-09-15T14:46:18.490Z,43.39
2022-09-15T14:48:46.142Z,43.37
2022-09-15T14:51:28.574Z,43.41
2022-09-15T14:54:00.364Z,43.37
2022-09-15T14:56:34.962Z,43.35
2022-09-15T14:59:09.120Z,43.49
2022-09-15T15:01:40.665Z,43.70
2022-09-15T15:04:16.998Z,43.62
2022-09-15T15:07:07.895Z,43.87
2022-09-15T15:09:58.177Z,43.64
2022-09-15T15:12:39.888Z,43.81
2022-09-15T15:15:10.823Z,44.12
2022-09-15T15:17:45.399Z,43.95
2022-09-15T15:20:30.334Z,43.91
2022-09-15T15:23:27.850Z,43.71
2022-09-15T15:26:45.604Z,43.49
2022-09-15T15:29:48.231Z,43.13
2022-09-15T15:32:20.509Z,42.42
2022-09-15T15:34:51.629Z,41.68
2022-09-15T15:37:30.936Z,41.03
2022-09-15T15:40:05.389Z,40.34
2022-09-15T15:42:33.532Z,40.11
2022-09-15T15:45:09.686Z,40.33
2022-09-15T15:47:37.477Z,39.72
2022-09-15T15:50:21.538Z,39.59
2022-09-15T15:52:50.573Z,40.21
2022-09-15T15:55:37.394Z,40.92
2022-09-15T15:58:05.805Z,41.10
2022-09-15T16:00:45.798Z,41.13
2022-09-15T16:03:14.787Z,41.44
2022-09-15T16:05:49.554Z,41.27
2022-09-15T16:08:33.247Z,41.42
2022-09-15T16:11:02.766Z,41.95
2022-09-15T16:13:30.677Z,42.35
2022-09-15T16:16:01.226Z,42.94
2022-09-15T16:18:29.796Z,42.93
2022-09-15T16:20:58.078Z,43.04
2022-09-15T16:23:25.637Z,42.73
2022-09-15T16:26:02.624Z,43.35
2022-09-15T16:28:30.529Z,43.44
2022-09-15T16:30:58.975Z,43.42
2022-09-15T16:33:27.316Z,43.37
2022-09-15T16:36:18.245Z,43.40
2022-09-15T16:38:46.233Z,43.70
2022-09-15T16:41:23.534Z,44.15
2022-09-15T16:43:53.301Z,44.42
2022-09-15T16:46:21.225Z,44.59
2022-09-15T16:48:48.703Z,44.67
2022-09-15T16:51:28.796Z,45.07
2022-09-15T16:53:58.993Z,45.06
2022-09-15T16:56:27.258Z,45.25
2022-09-15T16:59:00.227Z,45.09
2022-09-15T17:01:28.960Z,45.52
2022-09-15T17:03:56.445Z,45.82
2022-09-15T17:06:24.328Z,46.08
2022-09-15T17:08:52.119Z,45.80
2022-09-15T17:11:22.238Z,45.92
2022-09-15T17:13:50.350Z,45.91
2022-09-15T17:16:19.721Z,45.79
2022-09-15T17:18:48.163Z,45.92
2022-09-15T17:21:17.752Z,46.22
2022-09-15T17:23:48.186Z,45.56
2022-09-15T17:26:28.788Z,46.10
2022-09-15T17:28:59.480Z,45.86
2022-09-15T17:31:27.997Z,44.86
2022-09-15T17:33:55.653Z,45.08
2022-09-15T17:36:23.411Z,45.18
2022-09-15T17:38:50.975Z,45.79
2022-09-15T17:41:20.841Z,45.48
2022-09-15T17:43:49.395Z,45.54
2022-09-15T17:46:17.124Z,45.91
2022-09-15T17:48:44.806Z,45.72
2022-09-15T17:51:19.719Z,45.47
2022-09-15T17:53:47.798Z,45.02
2022-09-15T17:56:15.608Z,45.31
2022-09-15T17:58:44.265Z,45.16
2022-09-15T18:01:15.530Z,45.43
2022-09-15T18:03:45.180Z,45.55
2022-09-15T18:06:13.353Z,45.91
2022-09-15T18:08:41.168Z,45.46
2022-09-15T18:11:13.110Z,45.22
2022-09-15T18:13:40.556Z,44.78
2022-09-15T18:16:14.022Z,44.93
2022-09-15T18:18:43.051Z,45.04
2022-09-15T18:21:24.662Z,45.36
2022-09-15T18:23:52.941Z,45.32
2022-09-15T18:26:25.351Z,44.45
2022-09-15T18:28:54.698Z,44.25
2022-09-15T18:31:22.482Z,44.07
2022-09-15T18:33:50.013Z,45.04
2022-09-15T18:36:17.819Z,43.91
2022-09-15T18:38:45.304Z,43.89
2022-09-15T18:41:13.167Z,44.66
2022-09-15T18:43:40.968Z,43.74
2022-09-15T18:46:08.539Z,44.08
2022-09-15T18:48:36.060Z,43.63
2022-09-15T18:51:08.969Z,44.90
2022-09-15T18:53:39.579Z,45.37
2022-09-15T18:56:15.181Z,44.45
2022-09-15T18:58:43.344Z,44.35
2022-09-15T19:01:13.811Z,44.15
2022-09-15T19:03:44.092Z,47.33
2022-09-15T19:06:12.759Z,48.25
2022-09-15T19:08:40.750Z,48.97
2022-09-15T19:11:09.279Z,50.20
2022-09-15T19:13:36.969Z,51.21
2022-09-15T19:16:09.377Z,51.92
2022-09-15T19:18:37.143Z,52.98
2022-09-15T19:21:10.879Z,54.15
2022-09-15T19:23:39.320Z,55.19
2022-09-15T19:26:15.775Z,55.40
2022-09-15T19:28:44.970Z,56.36
2022-09-15T19:31:13.759Z,56.91
2022-09-15T19:33:41.520Z,57.97
2022-09-15T19:36:28.269Z,58.44
2022-09-15T19:38:58.022Z,59.07
2022-09-15T19:41:26.076Z,59.73
2022-09-15T19:43:54.021Z,60.19
2022-09-15T19:46:24.926Z,60.45
2022-09-15T19:48:53.884Z,60.60
2022-09-15T19:51:21.821Z,61.11
2022-09-15T19:53:54.427Z,61.11
2022-09-15T19:56:26.364Z,61.47
2022-09-15T19:58:57.087Z,62.01
2022-09-15T20:01:28.006Z,62.00
2022-09-15T20:03:57.480Z,62.16
2022-09-15T20:06:30.079Z,62.51
2022-09-15T20:09:00.433Z,62.62
2022-09-15T20:11:29.659Z,62.77
2022-09-15T20:13:57.397Z,62.33
2022-09-15T20:16:25.742Z,62.72
2022-09-15T20:18:55.270Z,63.11
2022-09-15T20:21:46.253Z,63.27
2022-09-15T20:24:16.991Z,63.18
2022-09-15T20:26:44.495Z,63.34
2022-09-15T20:29:12.403Z,63.75
2022-09-15T20:31:42.162Z,63.65
2022-09-15T20:34:10.104Z,63.63
2022-09-15T20:36:39.180Z,63.86
2022-09-15T20:39:13.231Z,63.46
2022-09-15T20:41:46.384Z,63.80
2022-09-15T20:44:15.446Z,63.94
2022-09-15T20:46:43.302Z,64.17
2022-09-15T20:49:12.012Z,63.95
2022-09-15T20:51:39.729Z,64.29
2022-09-15T20:54:07.180Z,64.78
2022-09-15T20:56:36.017Z,64.49
2022-09-15T20:59:06.020Z,64.28
2022-09-15T21:01:37.261Z,64.98
2022-09-15T21:04:07.960Z,64.91
2022-09-15T21:06:36.796Z,64.36
2022-09-15T21:09:05.281Z,63.83
2022-09-15T21:11:35.296Z,63.58
2022-09-15T21:14:04.804Z,62.79
2022-09-15T21:16:37.297Z,62.54
2022-09-15T21:19:13.642Z,62.49
2022-09-15T21:21:43.552Z,61.39
2022-09-15T21:24:12.654Z,61.56
2022-09-15T21:27:00.897Z,62.02
2022-09-15T21:29:29.296Z,61.74
2022-09-15T21:31:57.854Z,61.96
2022-09-15T21:34:26.387Z,61.46
2022-09-15T21:36:54.162Z,61.78
2022-09-15T21:39:21.733Z,62.38
2022-09-15T21:41:49.817Z,62.23
2022-09-15T21:44:17.611Z,63.19
2022-09-15T21:46:47.062Z,63.21
2022-09-15T21:49:15.181Z,63.53
2022-09-15T21:51:43.013Z,63.46
2022-09-15T21:54:10.672Z,63.41
2022-09-15T21:56:38.174Z,63.21
2022-09-15T21:59:06.092Z,64.11
2022-09-15T22:01:33.844Z,64.50
2022-09-15T22:04:04.214Z,64.39
2022-09-15T22:06:40.233Z,63.63
2022-09-15T22:09:13.113Z,63.71
2022-09-15T22:11:41.588Z,63.77
2022-09-15T22:14:10.419Z,64.39
2022-09-15T22:16:40.754Z,64.66
2022-09-15T22:19:11.112Z,64.91
2022-09-15T22:21:41.920Z,65.32
2022-09-15T22:24:13.073Z,65.78
2022-09-15T22:26:42.536Z,65.91
2022-09-15T22:29:10.607Z,66.26
2022-09-15T22:31:38.587Z,66.48
2022-09-15T22:34:06.187Z,66.90
2022-09-15T22:36:34.324Z,67.48
2022-09-15T22:39:05.329Z,67.99
2022-09-15T22:41:38.358Z,68.34
2022-09-15T22:44:16.329Z,69.31
2022-09-15T22:46:43.811Z,70.08
2022-09-15T22:49:11.670Z,70.62
2022-09-15T22:51:39.097Z,71.64
2022-09-15T22:54:06.722Z,72.41
2022-09-15T22:56:34.446Z,72.59
2022-09-15T22:59:02.820Z,73.28
2022-09-15T23:01:31.122Z,74.29
2022-09-15T23:04:02.184Z,74.66
2022-09-15T23:06:33.411Z,74.52
2022-09-15T23:09:05.505Z,74.81
2022-09-15T23:11:34.502Z,75.03
2022-09-15T23:14:02.679Z,74.67
2022-09-15T23:16:31.535Z,73.92
2022-09-15T23:19:00.190Z,73.53
2022-09-15T23:21:28.594Z,73.43
2022-09-15T23:23:56.332Z,73.96
2022-09-15T23:26:25.803Z,74.25
2022-09-15T23:28:54.388Z,74.47
2022-09-15T23:31:22.277Z,73.92
2022-09-15T23:33:50.140Z,73.03
2022-09-15T23:36:19.811Z,72.90
2022-09-15T23:38:48.387Z,72.68
2022-09-15T23:41:17.706Z,72.48
2022-09-15T23:43:46.369Z,72.72
2022-09-15T23:46:14.204Z,72.36
2022-09-15T23:48:42.338Z,71.76
2022-09-15T23:51:10.314Z,71.06
2022-09-15T23:53:37.912Z,71.10
2022-09-15T23:56:05.880Z,71.04
2022-09-15T23:58:33.625Z,71.34
